sensor_id;sensor_type;location;lat;lon;timestamp;temperature;humidity
2539;DHT22;1280;49.760;9.664;2022-09-09T00:00:13;19.60;68.80
2539;DHT22;1280;49.760;9.664;2022-09-09T00:02:46;19.60;68.90
2539;DHT22;1280;49.760;9.664;2022-09-09T00:05:24;19.60;69.00
2539;DHT22;1280;49.760;9.664;2022-09-09T00:07:55;19.60;69.10
2539;DHT22;1280;49.760;9.664;2022-09-09T00:10:29;19.50;69.20
2539;DHT22;1280;49.760;9.664;2022-09-09T00:13:05;19.50;69.40
2539;DHT22;1280;49.760;9.664;2022-09-09T00:15:40;19.40;69.70
2539;DHT22;1280;49.760;9.664;2022-09-09T00:18:15;19.40;69.80
2539;DHT22;1280;49.760;9.664;2022-09-09T00:20:52;19.40;70.10
2539;DHT22;1280;49.760;9.664;2022-09-09T00:23:25;19.40;70.30
2539;DHT22;1280;49.760;9.664;2022-09-09T00:26:02;19.40;70.50
2539;DHT22;1280;49.760;9.664;2022-09-09T00:28:38;19.40;70.60
2539;DHT22;1280;49.760;9.664;2022-09-09T00:31:12;19.40;70.70
2539;DHT22;1280;49.760;9.664;2022-09-09T00:33:41;19.40;70.90
2539;DHT22;1280;49.760;9.664;2022-09-09T00:36:15;19.40;70.90
2539;DHT22;1280;49.760;9.664;2022-09-09T00:38:48;19.40;71.00
2539;DHT22;1280;49.760;9.664;2022-09-09T00:41:22;19.40;71.00
2539;DHT22;1280;49.760;9.664;2022-09-09T00:43:56;19.30;71.10
2539;DHT22;1280;49.760;9.664;2022-09-09T00:46:53;19.30;71.10
2539;DHT22;1280;49.760;9.664;2022-09-09T00:49:32;19.20;71.20
2539;DHT22;1280;49.760;9.664;2022-09-09T00:52:20;19.20;71.40
2539;DHT22;1280;49.760;9.664;2022-09-09T00:54:56;19.20;71.50
2539;DHT22;1280;49.760;9.664;2022-09-09T00:57:29;19.20;71.60
2539;DHT22;1280;49.760;9.664;2022-09-09T01:00:16;19.10;71.70
2539;DHT22;1280;49.760;9.664;2022-09-09T01:02:53;19.10;71.80
2539;DHT22;1280;49.760;9.664;2022-09-09T01:05:30;19.10;72.00
2539;DHT22;1280;49.760;9.664;2022-09-09T01:08:08;19.10;72.00
2539;DHT22;1280;49.760;9.664;2022-09-09T01:10:44;19.10;72.10
2539;DHT22;1280;49.760;9.664;2022-09-09T01:13:21;19.10;72.00
2539;DHT22;1280;49.760;9.664;2022-09-09T01:15:53;19.10;72.00
2539;DHT22;1280;49.760;9.664;2022-09-09T01:18:30;19.10;72.10
2539;DHT22;1280;49.760;9.664;2022-09-09T01:21:06;19.00;72.30
2539;DHT22;1280;49.760;9.664;2022-09-09T01:24:02;19.00;72.30
2539;DHT22;1280;49.760;9.664;2022-09-09T01:26:55;19.00;72.40
2539;DHT22;1280;49.760;9.664;2022-09-09T01:29:25;19.00;72.50
2539;DHT22;1280;49.760;9.664;2022-09-09T01:31:55;19.00;72.60
2539;DHT22;1280;49.760;9.664;2022-09-09T01:34:26;19.00;72.70
2539;DHT22;1280;49.760;9.664;2022-09-09T01:36:57;19.10;72.60
2539;DHT22;1280;49.760;9.664;2022-09-09T01:39:27;19.10;72.60
2539;DHT22;1280;49.760;9.664;2022-09-09T01:42:02;19.10;72.50
2539;DHT22;1280;49.760;9.664;2022-09-09T01:44:31;19.10;72.50
2539;DHT22;1280;49.760;9.664;2022-09-09T01:47:00;19.10;72.50
2539;DHT22;1280;49.760;9.664;2022-09-09T01:49:28;19.10;72.50
2539;DHT22;1280;49.760;9.664;2022-09-09T01:51:58;19.10;72.50
2539;DHT22;1280;49.760;9.664;2022-09-09T01:54:32;19.10;72.50
2539;DHT22;1280;49.760;9.664;2022-09-09T01:57:17;19.10;72.50
2539;DHT22;1280;49.760;9.664;2022-09-09T02:00:00;19.10;72.60
2539;DHT22;1280;49.760;9.664;2022-09-09T02:02:46;19.10;72.70
2539;DHT22;1280;49.760;9.664;2022-09-09T02:05:29;19.00;72.60
2539;DHT22;1280;49.760;9.664;2022-09-09T02:08:06;19.00;72.80
2539;DHT22;1280;49.760;9.664;2022-09-09T02:10:47;18.90;72.90
2539;DHT22;1280;49.760;9.664;2022-09-09T02:13:33;18.90;73.10
2539;DHT22;1280;49.760;9.664;2022-09-09T02:16:06;19.00;73.20
2539;DHT22;1280;49.760;9.664;2022-09-09T02:18:44;19.00;73.20
2539;DHT22;1280;49.760;9.664;2022-09-09T02:21:14;19.00;73.30
2539;DHT22;1280;49.760;9.664;2022-09-09T02:23:45;19.10;73.30
2539;DHT22;1280;49.760;9.664;2022-09-09T02:26:16;19.10;73.30
2539;DHT22;1280;49.760;9.664;2022-09-09T02:28:55;19.10;73.30
2539;DHT22;1280;49.760;9.664;2022-09-09T02:31:25;19.10;73.30
2539;DHT22;1280;49.760;9.664;2022-09-09T02:34:00;19.00;73.40
2539;DHT22;1280;49.760;9.664;2022-09-09T02:36:32;19.10;73.30
2539;DHT22;1280;49.760;9.664;2022-09-09T02:39:03;19.00;73.50
2539;DHT22;1280;49.760;9.664;2022-09-09T02:41:36;19.00;73.50
2539;DHT22;1280;49.760;9.664;2022-09-09T02:44:09;19.00;73.50
2539;DHT22;1280;49.760;9.664;2022-09-09T02:46:57;18.90;73.50
2539;DHT22;1280;49.760;9.664;2022-09-09T02:49:31;18.90;73.60
2539;DHT22;1280;49.760;9.664;2022-09-09T02:52:06;18.90;73.60
2539;DHT22;1280;49.760;9.664;2022-09-09T02:54:38;18.90;73.70
2539;DHT22;1280;49.760;9.664;2022-09-09T02:57:12;18.90;73.70
2539;DHT22;1280;49.760;9.664;2022-09-09T02:59:46;18.90;73.80
2539;DHT22;1280;49.760;9.664;2022-09-09T03:02:15;18.90;73.80
2539;DHT22;1280;49.760;9.664;2022-09-09T03:04:46;18.90;73.80
2539;DHT22;1280;49.760;9.664;2022-09-09T03:07:18;18.90;73.80
2539;DHT22;1280;49.760;9.664;2022-09-09T03:09:48;18.80;73.80
2539;DHT22;1280;49.760;9.664;2022-09-09T03:12:16;18.80;73.90
2539;DHT22;1280;49.760;9.664;2022-09-09T03:14:46;18.80;73.90
2539;DHT22;1280;49.760;9.664;2022-09-09T03:17:14;18.80;73.90
2539;DHT22;1280;49.760;9.664;2022-09-09T03:19:49;18.80;74.00
2539;DHT22;1280;49.760;9.664;2022-09-09T03:22:19;18.80;74.00
2539;DHT22;1280;49.760;9.664;2022-09-09T03:24:48;18.80;74.10
2539;DHT22;1280;49.760;9.664;2022-09-09T03:27:16;18.80;74.00
2539;DHT22;1280;49.760;9.664;2022-09-09T03:29:47;18.80;74.10
2539;DHT22;1280;49.760;9.664;2022-09-09T03:32:21;18.90;74.10
2539;DHT22;1280;49.760;9.664;2022-09-09T03:34:53;18.90;74.10
2539;DHT22;1280;49.760;9.664;2022-09-09T03:37:21;18.90;74.00
2539;DHT22;1280;49.760;9.664;2022-09-09T03:39:50;18.90;74.00
2539;DHT22;1280;49.760;9.664;2022-09-09T03:42:19;18.80;74.00
2539;DHT22;1280;49.760;9.664;2022-09-09T03:44:51;18.80;74.20
2539;DHT22;1280;49.760;9.664;2022-09-09T03:47:23;18.80;74.20
2539;DHT22;1280;49.760;9.664;2022-09-09T03:49:55;18.80;74.20
2539;DHT22;1280;49.760;9.664;2022-09-09T03:52:23;18.80;74.20
2539;DHT22;1280;49.760;9.664;2022-09-09T03:54:53;18.80;74.30
2539;DHT22;1280;49.760;9.664;2022-09-09T03:57:23;18.80;74.30
2539;DHT22;1280;49.760;9.664;2022-09-09T03:59:52;18.70;74.40
2539;DHT22;1280;49.760;9.664;2022-09-09T04:02:21;18.70;74.40
2539;DHT22;1280;49.760;9.664;2022-09-09T04:04:49;18.70;74.50
2539;DHT22;1280;49.760;9.664;2022-09-09T04:07:17;18.70;74.50
2539;DHT22;1280;49.760;9.664;2022-09-09T04:09:45;18.70;74.50
2539;DHT22;1280;49.760;9.664;2022-09-09T04:12:13;18.70;74.50
2539;DHT22;1280;49.760;9.664;2022-09-09T04:14:43;18.70;74.60
2539;DHT22;1280;49.760;9.664;2022-09-09T04:17:12;18.70;74.60
2539;DHT22;1280;49.760;9.664;2022-09-09T04:19:40;18.60;74.60
2539;DHT22;1280;49.760;9.664;2022-09-09T04:22:10;18.60;74.60
2539;DHT22;1280;49.760;9.664;2022-09-09T04:24:38;18.60;74.60
2539;DHT22;1280;49.760;9.664;2022-09-09T04:27:06;18.60;74.60
2539;DHT22;1280;49.760;9.664;2022-09-09T04:29:36;18.60;74.60
2539;DHT22;1280;49.760;9.664;2022-09-09T04:32:04;18.60;74.70
2539;DHT22;1280;49.760;9.664;2022-09-09T04:34:33;18.60;74.80
2539;DHT22;1280;49.760;9.664;2022-09-09T04:37:01;18.60;74.70
2539;DHT22;1280;49.760;9.664;2022-09-09T04:39:29;18.60;74.70
2539;DHT22;1280;49.760;9.664;2022-09-09T04:41:59;18.70;74.60
2539;DHT22;1280;49.760;9.664;2022-09-09T04:44:27;18.70;74.50
2539;DHT22;1280;49.760;9.664;2022-09-09T04:46:55;18.70;74.50
2539;DHT22;1280;49.760;9.664;2022-09-09T04:49:23;18.70;74.40
2539;DHT22;1280;49.760;9.664;2022-09-09T04:51:55;18.70;74.30
2539;DHT22;1280;49.760;9.664;2022-09-09T04:54:23;18.70;74.30
2539;DHT22;1280;49.760;9.664;2022-09-09T04:56:52;18.70;74.20
2539;DHT22;1280;49.760;9.664;2022-09-09T04:59:20;18.70;74.20
2539;DHT22;1280;49.760;9.664;2022-09-09T05:01:52;18.70;74.20
2539;DHT22;1280;49.760;9.664;2022-09-09T05:04:22;18.60;74.20
2539;DHT22;1280;49.760;9.664;2022-09-09T05:06:50;18.60;74.10
2539;DHT22;1280;49.760;9.664;2022-09-09T05:09:19;18.60;74.20
2539;DHT22;1280;49.760;9.664;2022-09-09T05:11:47;18.60;74.30
2539;DHT22;1280;49.760;9.664;2022-09-09T05:14:29;18.70;74.20
2539;DHT22;1280;49.760;9.664;2022-09-09T05:16:58;18.70;74.20
2539;DHT22;1280;49.760;9.664;2022-09-09T05:19:26;18.70;74.20
2539;DHT22;1280;49.760;9.664;2022-09-09T05:21:54;18.70;74.20
2539;DHT22;1280;49.760;9.664;2022-09-09T05:24:32;18.80;74.20
2539;DHT22;1280;49.760;9.664;2022-09-09T05:27:02;18.80;74.30
2539;DHT22;1280;49.760;9.664;2022-09-09T05:29:32;18.80;74.20
2539;DHT22;1280;49.760;9.664;2022-09-09T05:32:03;18.80;74.20
2539;DHT22;1280;49.760;9.664;2022-09-09T05:34:32;18.80;74.20
2539;DHT22;1280;49.760;9.664;2022-09-09T05:37:00;18.90;74.20
2539;DHT22;1280;49.760;9.664;2022-09-09T05:39:28;18.90;74.20
2539;DHT22;1280;49.760;9.664;2022-09-09T05:41:57;18.90;74.20
2539;DHT22;1280;49.760;9.664;2022-09-09T05:44:25;18.90;74.20
2539;DHT22;1280;49.760;9.664;2022-09-09T05:46:54;18.90;74.20
2539;DHT22;1280;49.760;9.664;2022-09-09T05:49:22;18.90;74.20
2539;DHT22;1280;49.760;9.664;2022-09-09T05:51:51;18.90;74.20
2539;DHT22;1280;49.760;9.664;2022-09-09T05:54:20;18.90;74.10
2539;DHT22;1280;49.760;9.664;2022-09-09T05:56:50;18.90;74.10
2539;DHT22;1280;49.760;9.664;2022-09-09T05:59:21;18.90;74.20
2539;DHT22;1280;49.760;9.664;2022-09-09T06:01:52;18.90;74.30
2539;DHT22;1280;49.760;9.664;2022-09-09T06:04:26;18.90;74.20
2539;DHT22;1280;49.760;9.664;2022-09-09T06:06:54;18.80;74.20
2539;DHT22;1280;49.760;9.664;2022-09-09T06:09:22;18.80;74.20
2539;DHT22;1280;49.760;9.664;2022-09-09T06:11:50;18.80;74.20
2539;DHT22;1280;49.760;9.664;2022-09-09T06:14:21;18.80;74.30
2539;DHT22;1280;49.760;9.664;2022-09-09T06:16:51;18.80;74.30
2539;DHT22;1280;49.760;9.664;2022-09-09T06:19:25;18.80;74.40
2539;DHT22;1280;49.760;9.664;2022-09-09T06:21:56;18.80;74.40
2539;DHT22;1280;49.760;9.664;2022-09-09T06:24:26;18.80;74.40
2539;DHT22;1280;49.760;9.664;2022-09-09T06:26:57;18.80;74.40
2539;DHT22;1280;49.760;9.664;2022-09-09T06:29:30;18.90;74.30
2539;DHT22;1280;49.760;9.664;2022-09-09T06:31:58;18.80;74.30
2539;DHT22;1280;49.760;9.664;2022-09-09T06:34:27;18.80;74.30
2539;DHT22;1280;49.760;9.664;2022-09-09T06:36:58;18.90;74.40
2539;DHT22;1280;49.760;9.664;2022-09-09T06:39:32;18.90;74.40
2539;DHT22;1280;49.760;9.664;2022-09-09T06:42:00;18.90;74.30
2539;DHT22;1280;49.760;9.664;2022-09-09T06:44:49;19.00;74.30
2539;DHT22;1280;49.760;9.664;2022-09-09T06:47:33;19.00;74.30
2539;DHT22;1280;49.760;9.664;2022-09-09T06:50:02;19.00;74.20
2539;DHT22;1280;49.760;9.664;2022-09-09T06:52:33;19.10;74.20
2539;DHT22;1280;49.760;9.664;2022-09-09T06:55:02;19.20;74.20
2539;DHT22;1280;49.760;9.664;2022-09-09T06:57:31;19.20;74.20
2539;DHT22;1280;49.760;9.664;2022-09-09T07:00:08;19.30;74.20
2539;DHT22;1280;49.760;9.664;2022-09-09T07:02:37;19.30;74.20
2539;DHT22;1280;49.760;9.664;2022-09-09T07:05:08;19.40;74.00
2539;DHT22;1280;49.760;9.664;2022-09-09T07:07:38;19.40;74.00
2539;DHT22;1280;49.760;9.664;2022-09-09T07:10:08;19.40;74.00
2539;DHT22;1280;49.760;9.664;2022-09-09T07:12:36;19.50;74.00
2539;DHT22;1280;49.760;9.664;2022-09-09T07:15:10;19.50;73.90
2539;DHT22;1280;49.760;9.664;2022-09-09T07:17:42;19.50;73.90
2539;DHT22;1280;49.760;9.664;2022-09-09T07:20:10;19.60;73.90
2539;DHT22;1280;49.760;9.664;2022-09-09T07:22:39;19.60;73.90
2539;DHT22;1280;49.760;9.664;2022-09-09T07:25:09;19.60;73.80
2539;DHT22;1280;49.760;9.664;2022-09-09T07:27:37;19.70;73.80
2539;DHT22;1280;49.760;9.664;2022-09-09T07:30:06;19.70;73.80
2539;DHT22;1280;49.760;9.664;2022-09-09T07:32:36;19.70;73.80
2539;DHT22;1280;49.760;9.664;2022-09-09T07:35:05;19.80;73.80
2539;DHT22;1280;49.760;9.664;2022-09-09T07:37:36;19.80;73.70
2539;DHT22;1280;49.760;9.664;2022-09-09T07:40:05;19.90;73.60
2539;DHT22;1280;49.760;9.664;2022-09-09T07:42:33;19.90;73.60
2539;DHT22;1280;49.760;9.664;2022-09-09T07:45:03;19.90;73.70
2539;DHT22;1280;49.760;9.664;2022-09-09T07:47:32;20.00;73.70
2539;DHT22;1280;49.760;9.664;2022-09-09T07:50:02;20.00;73.70
2539;DHT22;1280;49.760;9.664;2022-09-09T07:52:33;20.10;73.70
2539;DHT22;1280;49.760;9.664;2022-09-09T07:55:04;20.10;73.60
2539;DHT22;1280;49.760;9.664;2022-09-09T07:57:32;20.10;73.50
2539;DHT22;1280;49.760;9.664;2022-09-09T08:00:02;20.10;73.50
2539;DHT22;1280;49.760;9.664;2022-09-09T08:02:38;20.10;73.50
2539;DHT22;1280;49.760;9.664;2022-09-09T08:05:08;20.20;73.50
2539;DHT22;1280;49.760;9.664;2022-09-09T08:07:39;20.20;73.60
2539;DHT22;1280;49.760;9.664;2022-09-09T08:10:07;20.20;73.50
2539;DHT22;1280;49.760;9.664;2022-09-09T08:12:37;20.30;73.30
2539;DHT22;1280;49.760;9.664;2022-09-09T08:15:14;20.30;73.30
2539;DHT22;1280;49.760;9.664;2022-09-09T08:17:42;20.30;73.30
2539;DHT22;1280;49.760;9.664;2022-09-09T08:20:14;20.30;73.30
2539;DHT22;1280;49.760;9.664;2022-09-09T08:22:42;20.40;73.30
2539;DHT22;1280;49.760;9.664;2022-09-09T08:25:10;20.50;73.20
2539;DHT22;1280;49.760;9.664;2022-09-09T08:27:38;20.50;73.20
2539;DHT22;1280;49.760;9.664;2022-09-09T08:30:07;20.60;73.20
2539;DHT22;1280;49.760;9.664;2022-09-09T08:32:35;20.70;73.10
2539;DHT22;1280;49.760;9.664;2022-09-09T08:35:07;20.70;73.30
2539;DHT22;1280;49.760;9.664;2022-09-09T08:37:37;20.80;73.10
2539;DHT22;1280;49.760;9.664;2022-09-09T08:40:09;20.80;73.00
2539;DHT22;1280;49.760;9.664;2022-09-09T08:42:47;20.90;72.80
2539;DHT22;1280;49.760;9.664;2022-09-09T08:45:23;20.90;72.90
2539;DHT22;1280;49.760;9.664;2022-09-09T08:48:04;20.90;72.80
2539;DHT22;1280;49.760;9.664;2022-09-09T08:50:35;20.90;72.70
2539;DHT22;1280;49.760;9.664;2022-09-09T08:53:18;20.90;72.60
2539;DHT22;1280;49.760;9.664;2022-09-09T08:55:51;21.00;72.70
2539;DHT22;1280;49.760;9.664;2022-09-09T08:58:42;21.00;72.50
2539;DHT22;1280;49.760;9.664;2022-09-09T09:04:31;21.10;72.00
2539;DHT22;1280;49.760;9.664;2022-09-09T09:07:09;21.10;72.00
2539;DHT22;1280;49.760;9.664;2022-09-09T09:09:49;21.10;72.10
2539;DHT22;1280;49.760;9.664;2022-09-09T09:12:22;21.10;72.10
2539;DHT22;1280;49.760;9.664;2022-09-09T09:14:55;21.20;72.10
2539;DHT22;1280;49.760;9.664;2022-09-09T09:17:28;21.20;72.00
2539;DHT22;1280;49.760;9.664;2022-09-09T09:19:58;21.30;71.80
2539;DHT22;1280;49.760;9.664;2022-09-09T09:22:32;21.30;71.60
2539;DHT22;1280;49.760;9.664;2022-09-09T09:25:13;21.30;71.50
2539;DHT22;1280;49.760;9.664;2022-09-09T09:27:51;21.40;71.50
2539;DHT22;1280;49.760;9.664;2022-09-09T09:30:24;21.40;71.40
2539;DHT22;1280;49.760;9.664;2022-09-09T09:33:11;21.40;71.30
2539;DHT22;1280;49.760;9.664;2022-09-09T09:35:40;21.50;71.20
2539;DHT22;1280;49.760;9.664;2022-09-09T09:38:17;21.50;71.30
2539;DHT22;1280;49.760;9.664;2022-09-09T09:41:07;21.60;71.10
2539;DHT22;1280;49.760;9.664;2022-09-09T09:43:37;21.70;70.60
2539;DHT22;1280;49.760;9.664;2022-09-09T09:46:20;21.70;70.30
2539;DHT22;1280;49.760;9.664;2022-09-09T09:48:57;21.80;69.80
2539;DHT22;1280;49.760;9.664;2022-09-09T09:51:27;21.80;69.90
2539;DHT22;1280;49.760;9.664;2022-09-09T09:54:07;21.80;69.80
2539;DHT22;1280;49.760;9.664;2022-09-09T09:56:39;21.90;69.60
2539;DHT22;1280;49.760;9.664;2022-09-09T09:59:20;21.90;69.50
2539;DHT22;1280;49.760;9.664;2022-09-09T10:02:18;21.90;69.40
2539;DHT22;1280;49.760;9.664;2022-09-09T10:05:01;21.90;69.20
2539;DHT22;1280;49.760;9.664;2022-09-09T10:07:30;21.90;69.20
2539;DHT22;1280;49.760;9.664;2022-09-09T10:10:00;21.80;69.20
2539;DHT22;1280;49.760;9.664;2022-09-09T10:12:39;21.80;69.20
2539;DHT22;1280;49.760;9.664;2022-09-09T10:15:26;21.70;69.30
2539;DHT22;1280;49.760;9.664;2022-09-09T10:18:08;21.60;69.50
2539;DHT22;1280;49.760;9.664;2022-09-09T10:20:45;21.50;69.80
2539;DHT22;1280;49.760;9.664;2022-09-09T10:23:29;21.40;70.00
2539;DHT22;1280;49.760;9.664;2022-09-09T10:26:17;21.20;70.50
2539;DHT22;1280;49.760;9.664;2022-09-09T10:29:05;20.90;70.10
2539;DHT22;1280;49.760;9.664;2022-09-09T10:31:44;20.60;70.00
2539;DHT22;1280;49.760;9.664;2022-09-09T10:34:23;20.40;70.50
2539;DHT22;1280;49.760;9.664;2022-09-09T10:36:59;20.20;70.90
2539;DHT22;1280;49.760;9.664;2022-09-09T10:39:35;20.10;71.30
2539;DHT22;1280;49.760;9.664;2022-09-09T10:42:12;20.10;71.50
2539;DHT22;1280;49.760;9.664;2022-09-09T10:45:02;20.10;71.80
2539;DHT22;1280;49.760;9.664;2022-09-09T10:47:57;20.10;72.10
2539;DHT22;1280;49.760;9.664;2022-09-09T10:50:50;20.10;72.10
2539;DHT22;1280;49.760;9.664;2022-09-09T10:53:39;20.10;72.20
2539;DHT22;1280;49.760;9.664;2022-09-09T10:56:11;20.10;72.50
2539;DHT22;1280;49.760;9.664;2022-09-09T10:58:44;20.10;72.60
2539;DHT22;1280;49.760;9.664;2022-09-09T11:01:21;20.10;72.90
2539;DHT22;1280;49.760;9.664;2022-09-09T11:03:53;20.20;73.20
2539;DHT22;1280;49.760;9.664;2022-09-09T11:06:28;20.20;73.20
2539;DHT22;1280;49.760;9.664;2022-09-09T11:09:01;20.30;73.30
2539;DHT22;1280;49.760;9.664;2022-09-09T11:11:34;20.30;73.50
2539;DHT22;1280;49.760;9.664;2022-09-09T11:14:11;20.30;73.70
2539;DHT22;1280;49.760;9.664;2022-09-09T11:16:45;20.40;73.90
2539;DHT22;1280;49.760;9.664;2022-09-09T11:19:20;20.40;74.00
2539;DHT22;1280;49.760;9.664;2022-09-09T11:21:51;20.50;74.20
2539;DHT22;1280;49.760;9.664;2022-09-09T11:24:23;20.50;74.10
2539;DHT22;1280;49.760;9.664;2022-09-09T11:26:57;20.60;74.30
2539;DHT22;1280;49.760;9.664;2022-09-09T11:29:52;20.60;74.60
2539;DHT22;1280;49.760;9.664;2022-09-09T11:32:48;20.80;74.80
2539;DHT22;1280;49.760;9.664;2022-09-09T11:35:29;20.90;75.10
2539;DHT22;1280;49.760;9.664;2022-09-09T11:38:26;21.00;75.10
2539;DHT22;1280;49.760;9.664;2022-09-09T11:40:57;21.00;74.80
2539;DHT22;1280;49.760;9.664;2022-09-09T11:43:30;21.10;74.80
2539;DHT22;1280;49.760;9.664;2022-09-09T11:46:01;21.20;74.80
2539;DHT22;1280;49.760;9.664;2022-09-09T11:48:34;21.30;74.90
2539;DHT22;1280;49.760;9.664;2022-09-09T11:51:06;21.40;74.80
2539;DHT22;1280;49.760;9.664;2022-09-09T11:53:51;21.40;74.70
2539;DHT22;1280;49.760;9.664;2022-09-09T11:56:27;21.50;74.50
2539;DHT22;1280;49.760;9.664;2022-09-09T11:58:59;21.60;74.20
2539;DHT22;1280;49.760;9.664;2022-09-09T12:01:37;21.60;73.90
2539;DHT22;1280;49.760;9.664;2022-09-09T12:04:25;21.60;73.50
2539;DHT22;1280;49.760;9.664;2022-09-09T12:06:58;21.70;73.40
2539;DHT22;1280;49.760;9.664;2022-09-09T12:09:45;21.70;73.30
2539;DHT22;1280;49.760;9.664;2022-09-09T12:12:30;21.80;73.20
2539;DHT22;1280;49.760;9.664;2022-09-09T12:15:18;21.80;73.10
2539;DHT22;1280;49.760;9.664;2022-09-09T12:17:48;21.90;72.90
2539;DHT22;1280;49.760;9.664;2022-09-09T12:20:20;21.90;72.70
2539;DHT22;1280;49.760;9.664;2022-09-09T12:23:19;22.00;72.50
2539;DHT22;1280;49.760;9.664;2022-09-09T12:26:03;22.00;72.20
2539;DHT22;1280;49.760;9.664;2022-09-09T12:28:42;22.10;71.80
2539;DHT22;1280;49.760;9.664;2022-09-09T12:31:15;22.10;71.60
2539;DHT22;1280;49.760;9.664;2022-09-09T12:33:46;22.10;71.40
2539;DHT22;1280;49.760;9.664;2022-09-09T12:36:18;22.20;71.10
2539;DHT22;1280;49.760;9.664;2022-09-09T12:38:47;22.20;70.80
2539;DHT22;1280;49.760;9.664;2022-09-09T12:41:21;22.20;70.50
2539;DHT22;1280;49.760;9.664;2022-09-09T12:43:50;22.20;70.30
2539;DHT22;1280;49.760;9.664;2022-09-09T12:46:24;22.30;70.20
2539;DHT22;1280;49.760;9.664;2022-09-09T12:48:54;22.30;69.90
2539;DHT22;1280;49.760;9.664;2022-09-09T12:51:30;22.40;69.80
2539;DHT22;1280;49.760;9.664;2022-09-09T12:53:59;22.50;69.20
2539;DHT22;1280;49.760;9.664;2022-09-09T12:56:30;22.50;69.00
2539;DHT22;1280;49.760;9.664;2022-09-09T12:58:59;22.50;68.50
2539;DHT22;1280;49.760;9.664;2022-09-09T13:01:29;22.50;68.10
2539;DHT22;1280;49.760;9.664;2022-09-09T13:03:58;22.40;67.90
2539;DHT22;1280;49.760;9.664;2022-09-09T13:06:29;22.40;67.90
2539;DHT22;1280;49.760;9.664;2022-09-09T13:08:59;22.30;67.80
2539;DHT22;1280;49.760;9.664;2022-09-09T13:11:30;22.30;67.80
2539;DHT22;1280;49.760;9.664;2022-09-09T13:13:59;22.30;67.90
2539;DHT22;1280;49.760;9.664;2022-09-09T13:16:29;22.30;67.70
2539;DHT22;1280;49.760;9.664;2022-09-09T13:19:02;22.40;67.20
2539;DHT22;1280;49.760;9.664;2022-09-09T13:21:37;22.30;67.30
2539;DHT22;1280;49.760;9.664;2022-09-09T13:24:06;22.40;67.30
2539;DHT22;1280;49.760;9.664;2022-09-09T13:26:37;22.50;67.00
2539;DHT22;1280;49.760;9.664;2022-09-09T13:29:16;22.50;66.40
2539;DHT22;1280;49.760;9.664;2022-09-09T13:31:45;22.50;65.80
2539;DHT22;1280;49.760;9.664;2022-09-09T13:34:22;22.50;65.70
2539;DHT22;1280;49.760;9.664;2022-09-09T13:36:58;22.50;65.70
2539;DHT22;1280;49.760;9.664;2022-09-09T13:39:28;22.60;65.40
2539;DHT22;1280;49.760;9.664;2022-09-09T13:41:56;22.70;65.40
2539;DHT22;1280;49.760;9.664;2022-09-09T13:44:27;22.70;65.10
2539;DHT22;1280;49.760;9.664;2022-09-09T13:47:03;22.80;64.70
2539;DHT22;1280;49.760;9.664;2022-09-09T13:49:36;22.90;64.20
2539;DHT22;1280;49.760;9.664;2022-09-09T13:52:10;23.00;64.10
2539;DHT22;1280;49.760;9.664;2022-09-09T13:54:38;23.10;63.90
2539;DHT22;1280;49.760;9.664;2022-09-09T13:57:15;23.20;63.70
2539;DHT22;1280;49.760;9.664;2022-09-09T13:59:44;23.20;63.30
2539;DHT22;1280;49.760;9.664;2022-09-09T14:02:31;23.30;63.10
2539;DHT22;1280;49.760;9.664;2022-09-09T14:04:59;23.20;62.70
2539;DHT22;1280;49.760;9.664;2022-09-09T14:07:28;23.20;62.60
2539;DHT22;1280;49.760;9.664;2022-09-09T14:09:56;23.20;62.20
2539;DHT22;1280;49.760;9.664;2022-09-09T14:12:27;23.10;62.20
2539;DHT22;1280;49.760;9.664;2022-09-09T14:14:55;23.00;61.60
2539;DHT22;1280;49.760;9.664;2022-09-09T14:17:23;23.00;61.60
2539;DHT22;1280;49.760;9.664;2022-09-09T14:19:51;22.90;61.70
2539;DHT22;1280;49.760;9.664;2022-09-09T14:22:20;22.80;61.80
2539;DHT22;1280;49.760;9.664;2022-09-09T14:24:49;22.80;61.70
2539;DHT22;1280;49.760;9.664;2022-09-09T14:27:17;22.80;61.80
2539;DHT22;1280;49.760;9.664;2022-09-09T14:29:46;22.70;61.50
2539;DHT22;1280;49.760;9.664;2022-09-09T14:32:14;22.70;61.80
2539;DHT22;1280;49.760;9.664;2022-09-09T14:34:42;22.70;62.00
2539;DHT22;1280;49.760;9.664;2022-09-09T14:37:11;22.70;62.20
2539;DHT22;1280;49.760;9.664;2022-09-09T14:39:38;22.60;62.30
2539;DHT22;1280;49.760;9.664;2022-09-09T14:42:08;22.50;62.30
2539;DHT22;1280;49.760;9.664;2022-09-09T14:44:37;22.50;62.30
2539;DHT22;1280;49.760;9.664;2022-09-09T14:47:06;22.40;62.30
2539;DHT22;1280;49.760;9.664;2022-09-09T14:49:34;22.30;62.40
2539;DHT22;1280;49.760;9.664;2022-09-09T14:52:03;22.20;62.40
2539;DHT22;1280;49.760;9.664;2022-09-09T14:54:31;22.20;62.30
2539;DHT22;1280;49.760;9.664;2022-09-09T14:56:59;22.10;62.20
2539;DHT22;1280;49.760;9.664;2022-09-09T14:59:29;22.10;62.30
2539;DHT22;1280;49.760;9.664;2022-09-09T15:01:57;22.00;62.40
2539;DHT22;1280;49.760;9.664;2022-09-09T15:04:25;22.00;62.50
2539;DHT22;1280;49.760;9.664;2022-09-09T15:06:54;22.00;62.60
2539;DHT22;1280;49.760;9.664;2022-09-09T15:09:22;22.00;62.70
2539;DHT22;1280;49.760;9.664;2022-09-09T15:11:50;22.00;62.70
2539;DHT22;1280;49.760;9.664;2022-09-09T15:14:18;22.00;62.80
2539;DHT22;1280;49.760;9.664;2022-09-09T15:16:52;22.00;62.90
2539;DHT22;1280;49.760;9.664;2022-09-09T15:19:20;22.00;63.00
2539;DHT22;1280;49.760;9.664;2022-09-09T15:21:48;22.10;63.10
2539;DHT22;1280;49.760;9.664;2022-09-09T15:24:16;22.10;63.10
2539;DHT22;1280;49.760;9.664;2022-09-09T15:26:44;22.10;63.20
2539;DHT22;1280;49.760;9.664;2022-09-09T15:29:12;22.10;63.20
2539;DHT22;1280;49.760;9.664;2022-09-09T15:31:40;22.10;63.10
2539;DHT22;1280;49.760;9.664;2022-09-09T15:34:09;22.10;63.10
2539;DHT22;1280;49.760;9.664;2022-09-09T15:36:39;22.10;63.00
2539;DHT22;1280;49.760;9.664;2022-09-09T15:39:08;22.10;63.00
2539;DHT22;1280;49.760;9.664;2022-09-09T15:41:39;22.10;63.00
2539;DHT22;1280;49.760;9.664;2022-09-09T15:44:09;22.10;62.70
2539;DHT22;1280;49.760;9.664;2022-09-09T15:46:39;22.10;62.70
2539;DHT22;1280;49.760;9.664;2022-09-09T15:49:10;22.10;62.50
2539;DHT22;1280;49.760;9.664;2022-09-09T15:51:40;22.10;62.20
2539;DHT22;1280;49.760;9.664;2022-09-09T15:54:12;22.10;62.20
2539;DHT22;1280;49.760;9.664;2022-09-09T15:56:40;22.10;62.00
2539;DHT22;1280;49.760;9.664;2022-09-09T15:59:09;22.10;62.00
2539;DHT22;1280;49.760;9.664;2022-09-09T16:01:38;22.20;61.90
2539;DHT22;1280;49.760;9.664;2022-09-09T16:04:08;22.10;61.90
2539;DHT22;1280;49.760;9.664;2022-09-09T16:06:37;22.20;61.90
2539;DHT22;1280;49.760;9.664;2022-09-09T16:09:07;22.20;61.90
2539;DHT22;1280;49.760;9.664;2022-09-09T16:11:37;22.10;61.80
2539;DHT22;1280;49.760;9.664;2022-09-09T16:14:05;22.10;61.70
2539;DHT22;1280;49.760;9.664;2022-09-09T16:16:34;22.10;61.80
2539;DHT22;1280;49.760;9.664;2022-09-09T16:19:04;22.00;61.80
2539;DHT22;1280;49.760;9.664;2022-09-09T16:21:35;22.00;61.90
2539;DHT22;1280;49.760;9.664;2022-09-09T16:24:08;21.90;61.90
2539;DHT22;1280;49.760;9.664;2022-09-09T16:26:38;21.90;61.90
2539;DHT22;1280;49.760;9.664;2022-09-09T16:29:06;21.80;62.00
2539;DHT22;1280;49.760;9.664;2022-09-09T16:31:35;21.70;62.10
2539;DHT22;1280;49.760;9.664;2022-09-09T16:34:04;21.70;62.20
2539;DHT22;1280;49.760;9.664;2022-09-09T16:36:34;21.60;62.30
2539;DHT22;1280;49.760;9.664;2022-09-09T16:39:06;21.60;62.40
2539;DHT22;1280;49.760;9.664;2022-09-09T16:41:36;21.50;62.60